createdAt,value
2022-08-31T00:02:39.345Z,15.05
2022-08-31T00:05:05.822Z,15.08
2022-08-31T00:07:34.812Z,15.15
2022-08-31T00:10:03.547Z,15.03
2022-08-31T00:12:29.917Z,15.06
2022-08-31T00:14:57.203Z,15.19
2022-08-31T00:17:23.568Z,14.98
2022-08-31T00:19:49.936Z,14.89
2022-08-31T00:22:16.303Z,14.76
2022-08-31T00:24:42.667Z,14.80
2022-08-31T00:27:09.102Z,14.81
2022-08-31T00:29:35.468Z,14.84
2022-08-31T00:32:01.933Z,14.86
2022-08-31T00:34:28.646Z,14.92
2022-08-31T00:36:55.089Z,15.00
2022-08-31T00:39:22.090Z,14.78
2022-08-31T00:41:48.513Z,14.82
2022-08-31T00:44:14.874Z,14.80
2022-08-31T00:46:41.660Z,14.77
2022-08-31T00:49:07.970Z,14.79
2022-08-31T00:51:36.698Z,14.68
2022-08-31T00:54:03.264Z,14.81
2022-08-31T00:56:31.378Z,14.79
2022-08-31T00:58:57.784Z,14.58
2022-08-31T01:01:24.482Z,14.44
2022-08-31T01:03:51.010Z,14.58
2022-08-31T01:06:17.403Z,14.48
2022-08-31T01:08:44.450Z,14.25
2022-08-31T01:11:10.802Z,14.17
2022-08-31T01:13:37.370Z,14.31
2022-08-31T01:16:05.681Z,14.15
2022-08-31T01:18:32.494Z,13.97
2022-08-31T01:21:08.089Z,13.86
2022-08-31T01:23:35.256Z,13.76
2022-08-31T01:26:02.303Z,13.96
2022-08-31T01:28:28.678Z,13.83
2022-08-31T01:31:18.386Z,13.73
2022-08-31T01:33:44.772Z,13.60
2022-08-31T01:36:14.301Z,13.49
2022-08-31T01:38:42.296Z,13.43
2022-08-31T01:41:08.671Z,13.35
2022-08-31T01:43:35.074Z,13.24
2022-08-31T01:46:02.053Z,13.28
2022-08-31T01:48:28.464Z,13.24
2022-08-31T01:50:54.849Z,13.14
2022-08-31T01:53:21.271Z,13.18
2022-08-31T01:55:47.674Z,13.21
2022-08-31T01:58:14.095Z,13.44
2022-08-31T02:00:40.484Z,13.23
2022-08-31T02:03:07.993Z,13.26
2022-08-31T02:05:35.408Z,13.05
2022-08-31T02:08:01.994Z,13.09
2022-08-31T02:10:28.364Z,13.00
2022-08-31T02:12:54.746Z,13.11
2022-08-31T02:15:21.097Z,13.04
2022-08-31T02:17:47.451Z,13.07
2022-08-31T02:20:19.271Z,12.99
2022-08-31T02:22:47.302Z,13.12
2022-08-31T02:25:13.657Z,13.13
2022-08-31T02:27:40.060Z,12.82
2022-08-31T02:30:07.732Z,12.73
2022-08-31T02:32:34.092Z,12.79
2022-08-31T02:35:00.466Z,12.76
2022-08-31T02:37:26.821Z,12.85
2022-08-31T02:39:53.200Z,12.76
2022-08-31T02:42:19.566Z,12.86
2022-08-31T02:44:45.934Z,12.70
2022-08-31T02:47:12.301Z,12.62
2022-08-31T02:49:38.665Z,12.60
2022-08-31T02:52:05.027Z,12.58
2022-08-31T02:54:31.389Z,12.45
2022-08-31T02:56:57.754Z,12.45
2022-08-31T02:59:24.120Z,12.54
2022-08-31T03:01:55.665Z,12.53
2022-08-31T03:04:22.164Z,12.72
2022-08-31T03:06:48.522Z,12.62
2022-08-31T03:09:15.769Z,12.62
2022-08-31T03:11:42.266Z,12.63
2022-08-31T03:14:08.943Z,12.63
2022-08-31T03:16:35.326Z,12.60
2022-08-31T03:19:01.700Z,12.59
2022-08-31T03:21:28.078Z,12.74
2022-08-31T03:23:54.469Z,12.54
2022-08-31T03:26:20.876Z,12.61
2022-08-31T03:28:47.287Z,12.50
2022-08-31T03:31:13.749Z,12.51
2022-08-31T03:33:40.183Z,12.50
2022-08-31T03:36:07.182Z,12.46
2022-08-31T03:38:33.680Z,12.51
2022-08-31T03:41:00.777Z,12.47
2022-08-31T03:43:27.135Z,12.54
2022-08-31T03:45:53.694Z,12.42
2022-08-31T03:48:20.048Z,12.34
2022-08-31T03:50:46.611Z,12.29
2022-08-31T03:53:12.954Z,12.20
2022-08-31T03:55:39.844Z,12.22
2022-08-31T03:58:06.583Z,12.41
2022-08-31T04:00:33.097Z,12.13
2022-08-31T04:03:00.037Z,12.15
2022-08-31T04:05:27.003Z,12.21
2022-08-31T04:07:53.434Z,12.10
2022-08-31T04:10:19.797Z,12.14
2022-08-31T04:12:46.155Z,12.14
2022-08-31T04:15:12.563Z,12.29
2022-08-31T04:17:38.908Z,12.29
2022-08-31T04:20:05.535Z,12.21
2022-08-31T04:22:31.928Z,12.09
2022-08-31T04:24:58.330Z,12.08
2022-08-31T04:27:24.675Z,12.12
2022-08-31T04:29:51.302Z,12.17
2022-08-31T04:32:17.702Z,12.10
2022-08-31T04:34:44.067Z,12.05
2022-08-31T04:37:14.337Z,12.12
2022-08-31T04:39:50.578Z,12.06
2022-08-31T04:42:17.448Z,11.97
2022-08-31T04:44:43.807Z,12.09
2022-08-31T04:47:10.155Z,12.12
2022-08-31T04:49:36.523Z,12.14
2022-08-31T04:52:03.171Z,12.34
2022-08-31T04:54:29.561Z,12.20
2022-08-31T04:56:55.986Z,12.29
2022-08-31T04:59:26.121Z,12.22
2022-08-31T05:01:52.687Z,12.22
2022-08-31T05:04:19.243Z,12.35
2022-08-31T05:06:45.706Z,12.44
2022-08-31T05:09:16.057Z,12.51
2022-08-31T05:11:42.557Z,12.57
2022-08-31T05:14:09.089Z,12.46
2022-08-31T05:16:37.362Z,12.66
2022-08-31T05:19:03.717Z,12.59
2022-08-31T05:21:30.890Z,12.58
2022-08-31T05:23:58.052Z,12.55
2022-08-31T05:26:26.822Z,12.66
2022-08-31T05:28:53.730Z,12.79
2022-08-31T05:31:21.367Z,13.02
2022-08-31T05:33:47.834Z,13.21
2022-08-31T05:36:14.192Z,13.15
2022-08-31T05:38:40.557Z,13.11
2022-08-31T05:41:07.516Z,13.34
2022-08-31T05:43:33.939Z,13.43
2022-08-31T05:46:00.555Z,13.56
2022-08-31T05:48:29.843Z,13.60
2022-08-31T05:50:59.724Z,13.71
2022-08-31T05:53:27.098Z,13.75
2022-08-31T05:56:00.421Z,13.84
2022-08-31T05:58:26.897Z,14.01
2022-08-31T06:00:53.250Z,14.04
2022-08-31T06:03:19.752Z,14.11
2022-08-31T06:05:46.256Z,14.17
2022-08-31T06:08:15.345Z,14.31
2022-08-31T06:10:41.867Z,14.38
2022-08-31T06:13:08.698Z,14.44
2022-08-31T06:15:35.485Z,14.51
2022-08-31T06:18:08.417Z,14.54
2022-08-31T06:20:37.976Z,14.70
2022-08-31T06:23:05.495Z,14.88
2022-08-31T06:25:32.496Z,14.84
2022-08-31T06:27:59.476Z,14.99
2022-08-31T06:30:27.456Z,15.17
2022-08-31T06:32:58.334Z,15.24
2022-08-31T06:35:25.100Z,15.30
2022-08-31T06:37:51.825Z,15.18
2022-08-31T06:40:18.315Z,14.96
2022-08-31T06:42:44.759Z,14.85
2022-08-31T06:45:11.324Z,14.60
2022-08-31T06:47:37.719Z,14.63
2022-08-31T06:50:04.272Z,14.60
2022-08-31T06:52:30.876Z,14.57
2022-08-31T06:54:57.292Z,14.81
2022-08-31T06:57:23.748Z,14.84
2022-08-31T06:59:51.780Z,14.80
2022-08-31T07:02:18.346Z,14.98
2022-08-31T07:04:44.932Z,15.03
2022-08-31T07:07:11.508Z,15.37
2022-08-31T07:09:39.455Z,15.38
2022-08-31T07:12:05.873Z,15.82
2022-08-31T07:14:32.327Z,15.98
2022-08-31T07:16:58.870Z,16.23
2022-08-31T07:19:25.345Z,16.65
2022-08-31T07:21:55.757Z,16.85
2022-08-31T07:24:27.790Z,16.99
2022-08-31T07:27:04.335Z,17.30
2022-08-31T07:29:33.015Z,17.05
2022-08-31T07:31:59.591Z,16.90
2022-08-31T07:34:26.939Z,17.07
2022-08-31T07:37:12.563Z,17.10
2022-08-31T07:39:57.672Z,16.81
2022-08-31T07:42:26.131Z,17.07
2022-08-31T07:44:53.440Z,16.82
2022-08-31T07:47:20.562Z,16.90
2022-08-31T07:49:51.226Z,16.67
2022-08-31T07:52:21.946Z,16.67
2022-08-31T07:54:48.580Z,16.20
2022-08-31T07:57:15.585Z,16.03
2022-08-31T07:59:41.950Z,16.40
2022-08-31T08:02:08.592Z,16.47
2022-08-31T08:04:40.894Z,16.96
2022-08-31T08:07:07.313Z,17.29
2022-08-31T08:09:34.497Z,17.44
2022-08-31T08:12:06.216Z,17.38
2022-08-31T08:14:34.352Z,17.33
2022-08-31T08:17:01.232Z,17.19
2022-08-31T08:19:27.825Z,17.34
2022-08-31T08:21:55.550Z,17.44
2022-08-31T08:24:22.674Z,17.49
2022-08-31T08:26:53.956Z,18.02
2022-08-31T08:29:20.768Z,17.76
2022-08-31T08:31:56.262Z,18.24
2022-08-31T08:34:27.106Z,18.24
2022-08-31T08:36:59.178Z,18.26
2022-08-31T08:39:25.859Z,18.08
2022-08-31T08:41:52.254Z,18.18
2022-08-31T08:44:18.875Z,17.97
2022-08-31T08:46:47.976Z,17.95
2022-08-31T08:49:14.950Z,18.29
2022-08-31T08:51:41.360Z,18.08
2022-08-31T08:54:10.859Z,18.27
2022-08-31T08:56:42.058Z,18.64
2022-08-31T08:59:12.162Z,18.63
2022-08-31T09:01:40.248Z,18.70
2022-08-31T09:04:17.125Z,18.42
2022-08-31T09:06:54.643Z,18.33
2022-08-31T09:09:39.934Z,18.21
2022-08-31T09:12:11.383Z,18.63
2022-08-31T09:14:50.462Z,18.71
2022-08-31T09:17:26.200Z,18.91
2022-08-31T09:20:00.423Z,18.80
2022-08-31T09:22:30.756Z,18.99
2022-08-31T09:24:59.596Z,19.20
2022-08-31T09:27:40.133Z,19.40
2022-08-31T09:30:06.743Z,19.74
2022-08-31T09:32:34.834Z,19.78
2022-08-31T09:35:02.551Z,19.80
2022-08-31T09:37:33.473Z,20.16
2022-08-31T09:40:32.564Z,20.38
2022-08-31T09:43:02.638Z,20.48
2022-08-31T09:45:41.810Z,20.95
2022-08-31T09:48:08.825Z,20.96
2022-08-31T09:50:45.588Z,21.12
2022-08-31T09:53:35.069Z,21.16
2022-08-31T09:56:05.656Z,21.07
2022-08-31T09:58:34.409Z,20.85
2022-08-31T10:01:12.933Z,20.75
2022-08-31T10:03:44.198Z,21.08
2022-08-31T10:06:25.116Z,20.70
2022-08-31T10:08:57.917Z,20.83
2022-08-31T10:11:26.629Z,21.07
2022-08-31T10:14:00.402Z,21.52
2022-08-31T10:16:33.022Z,21.67
2022-08-31T10:19:01.826Z,21.60
2022-08-31T10:21:32.254Z,21.60
2022-08-31T10:24:10.412Z,21.34
2022-08-31T10:26:37.916Z,21.58
2022-08-31T10:29:28.391Z,21.84
2022-08-31T10:31:55.353Z,22.00
2022-08-31T10:34:41.782Z,22.38
2022-08-31T10:37:12.513Z,22.04
2022-08-31T10:39:47.101Z,22.13
2022-08-31T10:42:30.698Z,22.08
2022-08-31T10:44:59.314Z,21.81
2022-08-31T10:47:33.718Z,21.91
2022-08-31T10:50:03.082Z,21.63
2022-08-31T10:52:32.321Z,21.45
2022-08-31T10:55:06.664Z,22.20
2022-08-31T10:57:39.904Z,22.57
2022-08-31T11:00:30.049Z,22.83
2022-08-31T11:03:00.130Z,22.93
2022-08-31T11:05:35.155Z,22.45
2022-08-31T11:08:13.836Z,21.56
2022-08-31T11:10:49.959Z,22.46
2022-08-31T11:13:25.948Z,21.74
2022-08-31T11:15:58.922Z,22.74
2022-08-31T11:18:36.228Z,22.85
2022-08-31T11:21:05.653Z,23.43
2022-08-31T11:23:35.789Z,23.52
2022-08-31T11:26:28.476Z,23.54
2022-08-31T11:28:56.422Z,23.47
2022-08-31T11:31:24.283Z,23.47
2022-08-31T11:34:15.069Z,24.02
2022-08-31T11:36:49.891Z,23.77
2022-08-31T11:39:20.282Z,23.03
2022-08-31T11:41:48.528Z,22.58
2022-08-31T11:44:30.217Z,22.41
2022-08-31T11:47:09.321Z,22.79
2022-08-31T11:49:36.769Z,23.08
2022-08-31T11:52:10.354Z,22.99
2022-08-31T11:54:42.797Z,22.57
2022-08-31T11:57:15.915Z,22.35
2022-08-31T11:59:46.212Z,23.18
2022-08-31T12:02:21.775Z,23.34
2022-08-31T12:04:53.236Z,23.87
2022-08-31T12:07:38.805Z,23.64
2022-08-31T12:10:27.194Z,24.24
2022-08-31T12:13:19.526Z,23.91
2022-08-31T12:16:07.156Z,23.88
2022-08-31T12:19:03.135Z,24.17
2022-08-31T12:21:57.137Z,24.59
2022-08-31T12:24:29.807Z,25.01
2022-08-31T12:27:17.711Z,25.01
2022-08-31T12:29:44.068Z,24.24
2022-08-31T12:32:12.785Z,24.01
2022-08-31T12:34:42.768Z,24.40
2022-08-31T12:37:19.389Z,23.81
2022-08-31T12:39:45.739Z,23.88
2022-08-31T12:42:12.101Z,23.49
2022-08-31T12:44:48.132Z,23.74
2022-08-31T12:47:26.571Z,22.09
2022-08-31T12:50:11.082Z,22.07
2022-08-31T12:52:42.710Z,22.62
2022-08-31T12:55:12.663Z,23.52
2022-08-31T12:57:50.771Z,24.18
2022-08-31T13:00:26.349Z,23.80
2022-08-31T13:02:53.643Z,23.92
2022-08-31T13:05:30.595Z,23.69
2022-08-31T13:07:56.983Z,24.36
2022-08-31T13:10:30.597Z,24.09
2022-08-31T13:12:58.430Z,23.55
2022-08-31T13:15:25.907Z,23.58
2022-08-31T13:17:53.306Z,22.84
2022-08-31T13:20:19.739Z,23.11
2022-08-31T13:22:48.852Z,22.71
2022-08-31T13:25:35.590Z,22.88
2022-08-31T13:28:03.477Z,22.46
2022-08-31T13:30:31.759Z,21.70
2022-08-31T13:32:59.255Z,21.56
2022-08-31T13:35:25.849Z,21.34
2022-08-31T13:38:05.309Z,21.62
2022-08-31T13:40:33.583Z,22.18
2022-08-31T13:42:59.999Z,23.48
2022-08-31T13:45:27.663Z,23.39
2022-08-31T13:47:57.252Z,24.70
2022-08-31T13:50:25.928Z,24.59
2022-08-31T13:53:23.018Z,24.24
2022-08-31T13:55:44.150Z,23.38
2022-08-31T13:58:22.815Z,23.11
2022-08-31T14:00:58.761Z,23.70
2022-08-31T14:03:40.958Z,23.94
2022-08-31T14:06:16.602Z,24.42
2022-08-31T14:08:46.632Z,24.65
2022-08-31T14:11:15.693Z,24.98
2022-08-31T14:13:47.217Z,24.91
2022-08-31T14:16:16.674Z,24.64
2022-08-31T14:18:45.046Z,24.97
2022-08-31T14:21:29.427Z,24.00
2022-08-31T14:24:00.994Z,24.65
2022-08-31T14:26:28.973Z,24.92
2022-08-31T14:28:56.542Z,23.96
2022-08-31T14:31:24.382Z,23.76
2022-08-31T14:33:57.506Z,23.73
2022-08-31T14:36:24.485Z,23.38
2022-08-31T14:38:54.251Z,23.08
2022-08-31T14:41:25.649Z,23.00
2022-08-31T14:43:54.408Z,22.81
2022-08-31T14:46:27.868Z,22.74
2022-08-31T14:48:55.288Z,22.66
2022-08-31T14:51:22.397Z,22.80
2022-08-31T14:53:48.744Z,22.67
2022-08-31T14:56:20.485Z,22.55
2022-08-31T14:58:50.701Z,22.54
2022-08-31T15:01:17.729Z,22.55
2022-08-31T15:03:45.070Z,22.32
2022-08-31T15:06:13.672Z,22.24
2022-08-31T15:08:40.839Z,21.86
2022-08-31T15:11:10.070Z,21.70
2022-08-31T15:13:39.582Z,21.65
2022-08-31T15:16:06.497Z,21.42
2022-08-31T15:18:33.767Z,21.38
2022-08-31T15:21:02.050Z,21.36
2022-08-31T15:23:29.649Z,21.20
2022-08-31T15:26:06.345Z,21.23
2022-08-31T15:28:41.892Z,21.30
2022-08-31T15:31:11.309Z,21.37
2022-08-31T15:33:41.313Z,21.41
2022-08-31T15:36:09.144Z,21.35
2022-08-31T15:41:01.732Z,21.08
2022-08-31T15:43:28.287Z,21.03
2022-08-31T15:45:54.670Z,21.07
2022-08-31T15:48:39.871Z,21.06
2022-08-31T15:51:06.363Z,20.95
2022-08-31T15:53:35.418Z,20.81
2022-08-31T15:56:06.241Z,20.88
2022-08-31T15:58:33.687Z,20.89
2022-08-31T16:01:00.397Z,20.86
2022-08-31T16:03:32.162Z,20.77
2022-08-31T16:06:03.129Z,20.72
2022-08-31T16:08:29.563Z,20.72
2022-08-31T16:10:56.066Z,20.62
2022-08-31T16:13:22.531Z,20.63
2022-08-31T16:15:51.065Z,20.71
2022-08-31T16:18:18.560Z,20.62
2022-08-31T16:20:48.030Z,20.50
2022-08-31T16:23:14.632Z,20.53
2022-08-31T16:25:48.456Z,20.41
2022-08-31T16:28:16.232Z,20.26
2022-08-31T16:30:43.861Z,20.29
2022-08-31T16:33:11.517Z,20.35
2022-08-31T16:35:38.670Z,20.26
2022-08-31T16:38:06.479Z,20.20
2022-08-31T16:40:33.307Z,20.18
2022-08-31T16:42:59.884Z,20.15
2022-08-31T16:45:26.391Z,20.15
2022-08-31T16:48:12.875Z,20.13
2022-08-31T16:50:43.827Z,20.04
2022-08-31T16:53:10.265Z,19.99
2022-08-31T16:55:42.037Z,20.03
2022-08-31T16:58:08.486Z,19.89
2022-08-31T17:00:37.896Z,19.82
2022-08-31T17:03:04.529Z,19.85
2022-08-31T17:05:30.964Z,19.66
2022-08-31T17:07:57.731Z,19.81
2022-08-31T17:10:24.222Z,19.83
2022-08-31T17:12:52.216Z,19.68
2022-08-31T17:15:20.817Z,19.64
2022-08-31T17:17:48.048Z,19.70
2022-08-31T17:20:16.507Z,19.63
2022-08-31T17:22:44.810Z,19.60
2022-08-31T17:25:13.181Z,19.50
2022-08-31T17:27:39.820Z,19.53
2022-08-31T17:30:07.368Z,19.42
2022-08-31T17:32:36.564Z,19.40
2022-08-31T17:35:11.541Z,19.53
2022-08-31T17:37:38.525Z,19.40
2022-08-31T17:40:08.034Z,19.37
2022-08-31T17:42:35.002Z,19.29
2022-08-31T17:45:04.997Z,19.16
2022-08-31T17:47:33.104Z,19.13
2022-08-31T17:49:59.554Z,19.11
2022-08-31T17:52:26.021Z,19.12
2022-08-31T17:54:52.656Z,19.12
2022-08-31T17:57:21.321Z,19.01
2022-08-31T17:59:50.732Z,18.81
2022-08-31T18:02:19.102Z,18.58
2022-08-31T18:04:45.739Z,18.47
2022-08-31T18:07:12.269Z,18.35
2022-08-31T18:09:39.654Z,18.17
2022-08-31T18:12:06.313Z,18.06
2022-08-31T18:14:32.954Z,17.76
2022-08-31T18:17:00.533Z,17.46
2022-08-31T18:19:28.189Z,17.38
2022-08-31T18:21:57.925Z,17.03
2022-08-31T18:24:24.930Z,16.82
2022-08-31T18:26:51.853Z,16.65
2022-08-31T18:29:22.627Z,16.68
2022-08-31T18:31:52.969Z,16.41
2022-08-31T18:34:21.229Z,16.36
2022-08-31T18:36:48.294Z,16.25
2022-08-31T18:39:29.416Z,16.31
2022-08-31T18:42:23.603Z,16.28
2022-08-31T18:45:08.608Z,16.31
2022-08-31T18:47:35.113Z,16.15
2022-08-31T18:50:03.319Z,16.09
2022-08-31T18:52:29.847Z,16.20
2022-08-31T18:54:56.979Z,16.28
2022-08-31T18:57:23.798Z,16.36
2022-08-31T18:59:50.818Z,16.31
2022-08-31T19:02:22.840Z,16.36
2022-08-31T19:04:50.315Z,16.28
2022-08-31T19:07:16.884Z,16.53
2022-08-31T19:09:45.089Z,16.62
2022-08-31T19:12:13.671Z,16.69
2022-08-31T19:14:40.466Z,16.54
2022-08-31T19:17:08.320Z,16.56
2022-08-31T19:19:34.845Z,16.81
2022-08-31T19:22:02.094Z,16.88
2022-08-31T19:24:28.690Z,16.85
2022-08-31T19:26:56.062Z,16.75
2022-08-31T19:29:25.009Z,16.57
2022-08-31T19:31:51.789Z,16.72
2022-08-31T19:34:19.787Z,16.58
2022-08-31T19:36:48.677Z,16.53
2022-08-31T19:39:20.213Z,16.68
2022-08-31T19:41:57.416Z,16.41
2022-08-31T19:44:26.439Z,16.28
2022-08-31T19:46:53.447Z,16.21
2022-08-31T19:49:20.021Z,16.19
2022-08-31T19:51:58.636Z,16.06
2022-08-31T19:54:26.176Z,15.93
2022-08-31T19:56:52.887Z,15.92
2022-08-31T19:59:21.088Z,15.83
2022-08-31T20:01:48.289Z,15.82
2022-08-31T20:04:17.222Z,15.78
2022-08-31T20:06:45.154Z,15.85
2022-08-31T20:09:11.643Z,15.86
2022-08-31T20:11:38.085Z,15.95
2022-08-31T20:14:05.196Z,15.87
2022-08-31T20:16:34.146Z,15.78
2022-08-31T20:19:00.787Z,15.58
2022-08-31T20:21:28.096Z,15.50
2022-08-31T20:23:56.390Z,15.48
2022-08-31T20:26:27.877Z,15.68
2022-08-31T20:29:01.216Z,15.83
2022-08-31T20:31:27.824Z,15.83
2022-08-31T20:33:55.645Z,15.93
2022-08-31T20:36:23.054Z,16.09
2022-08-31T20:38:52.214Z,15.93
2022-08-31T20:41:18.945Z,15.88
2022-08-31T20:43:46.057Z,15.78
2022-08-31T20:46:32.412Z,15.51
2022-08-31T20:49:17.499Z,15.41
2022-08-31T20:51:44.725Z,15.28
2022-08-31T20:54:11.294Z,15.55
2022-08-31T20:56:39.430Z,15.28
2022-08-31T20:59:09.734Z,15.36
2022-08-31T21:01:39.205Z,15.18
2022-08-31T21:04:05.898Z,15.21
2022-08-31T21:06:37.325Z,15.27
2022-08-31T21:09:03.690Z,15.40
2022-08-31T21:11:30.035Z,15.55
2022-08-31T21:13:56.387Z,15.40
2022-08-31T21:16:23.560Z,15.42
2022-08-31T21:18:49.963Z,15.38
2022-08-31T21:21:17.391Z,15.03
2022-08-31T21:23:46.907Z,14.93
2022-08-31T21:26:17.347Z,14.96
2022-08-31T21:28:46.268Z,14.82
2022-08-31T21:31:15.648Z,14.80
2022-08-31T21:33:54.699Z,14.71
2022-08-31T21:36:25.971Z,14.58
2022-08-31T21:38:52.763Z,14.56
2022-08-31T21:41:20.054Z,14.69
2022-08-31T21:43:46.990Z,14.46
2022-08-31T21:46:14.285Z,14.38
2022-08-31T21:48:42.366Z,14.41
2022-08-31T21:51:10.103Z,14.75
2022-08-31T21:53:36.467Z,14.73
2022-08-31T21:56:03.186Z,14.65
2022-08-31T21:58:29.573Z,14.64
2022-08-31T22:00:56.312Z,14.42
2022-08-31T22:03:22.683Z,14.39
2022-08-31T22:05:49.044Z,14.59
2022-08-31T22:08:15.428Z,14.45
2022-08-31T22:10:42.151Z,14.30
2022-08-31T22:13:11.545Z,14.43
2022-08-31T22:15:38.214Z,14.35
2022-08-31T22:18:58.418Z,14.35
2022-08-31T22:20:52.378Z,14.44
2022-08-31T22:23:18.851Z,14.21
2022-08-31T22:25:45.227Z,14.32
2022-08-31T22:28:12.861Z,14.30
2022-08-31T22:30:39.349Z,14.18
2022-08-31T22:33:05.756Z,14.10
2022-08-31T22:35:32.123Z,14.14
2022-08-31T22:37:58.538Z,14.16
2022-08-31T22:40:25.011Z,14.21
2022-08-31T22:42:51.918Z,14.24
2022-08-31T22:45:18.441Z,14.41
2022-08-31T22:47:49.762Z,14.63
2022-08-31T22:50:16.678Z,14.64
2022-08-31T22:52:43.048Z,14.54
2022-08-31T22:55:09.522Z,14.54
2022-08-31T22:57:36.554Z,14.50
2022-08-31T23:00:04.368Z,14.44
2022-08-31T23:02:31.158Z,14.52
2022-08-31T23:04:57.736Z,14.38
2022-08-31T23:07:24.087Z,14.34
2022-08-31T23:09:50.436Z,14.40
2022-08-31T23:12:16.827Z,14.37
2022-08-31T23:14:43.182Z,14.32
2022-08-31T23:17:13.761Z,14.27
2022-08-31T23:19:41.116Z,14.40
2022-08-31T23:22:09.400Z,14.50
2022-08-31T23:24:37.044Z,14.44
2022-08-31T23:27:07.268Z,14.27
2022-08-31T23:29:34.945Z,14.11
2022-08-31T23:32:01.486Z,14.07
2022-08-31T23:34:27.843Z,14.01
2022-08-31T23:36:55.521Z,14.00
2022-08-31T23:39:22.878Z,13.95
2022-08-31T23:41:49.368Z,13.72
2022-08-31T23:44:15.994Z,13.73
2022-08-31T23:46:43.269Z,13.61
2022-08-31T23:49:10.136Z,13.61
2022-08-31T23:51:36.509Z,13.78
2022-08-31T23:54:06.312Z,13.81
2022-08-31T23:56:33.063Z,13.77
2022-08-31T23:58:59.555Z,13.74
